createdAt,value
2022-11-24T00:01:24.882Z,99359.53
2022-11-24T00:03:55.672Z,99357.81
2022-11-24T00:06:25.113Z,99362.06
2022-11-24T00:08:54.639Z,99359.59
2022-11-24T00:11:25.001Z,99363.16
2022-11-24T00:13:53.708Z,99365.03
2022-11-24T00:16:25.702Z,99368.44
2022-11-24T00:18:56.731Z,99373.59
2022-11-24T00:21:29.798Z,99375.41
2022-11-24T00:23:58.465Z,99378.84
2022-11-24T00:26:29.674Z,99374.44
2022-11-24T00:29:01.081Z,99382.28
2022-11-24T00:31:33.891Z,99382.22
2022-11-24T00:34:05.902Z,99384.78
2022-11-24T00:36:36.122Z,99386.72
2022-11-24T00:39:07.666Z,99383.16
2022-11-24T00:41:37.448Z,99390.88
2022-11-24T00:44:06.302Z,99391.84
2022-11-24T00:46:35.982Z,99382.38
2022-11-24T00:49:04.868Z,99384.16
2022-11-24T00:51:33.290Z,99385.97
2022-11-24T00:54:02.006Z,99382.44
2022-11-24T00:56:31.022Z,99375.59
2022-11-24T00:58:59.088Z,99385.88
2022-11-24T01:01:31.036Z,99385.88
2022-11-24T01:04:01.547Z,99388.50
2022-11-24T01:06:30.377Z,99398.00
2022-11-24T01:08:58.670Z,99389.31
2022-11-24T01:11:29.983Z,99392.84
2022-11-24T01:13:59.589Z,99397.91
2022-11-24T01:16:31.678Z,99390.25
2022-11-24T01:19:05.977Z,99397.09
2022-11-24T01:21:33.927Z,99398.75
2022-11-24T01:24:01.910Z,99404.78
2022-11-24T01:26:30.085Z,99403.03
2022-11-24T01:28:58.840Z,99405.56
2022-11-24T01:31:27.649Z,99406.56
2022-11-24T01:33:55.982Z,99413.28
2022-11-24T01:36:25.356Z,99408.09
2022-11-24T01:38:53.288Z,99409.09
2022-11-24T01:41:25.000Z,99421.94
2022-11-24T01:43:55.252Z,99421.03
2022-11-24T01:46:30.213Z,99421.88
2022-11-24T01:49:06.755Z,99427.09
2022-11-24T01:51:43.152Z,99423.63
2022-11-24T01:54:16.989Z,99428.78
2022-11-24T01:56:51.240Z,99416.06
2022-11-24T01:59:21.733Z,99428.84
2022-11-24T02:01:53.121Z,99433.19
2022-11-24T02:04:27.907Z,99428.06
2022-11-24T02:07:00.816Z,99438.34
2022-11-24T02:09:37.471Z,99438.34
2022-11-24T02:12:06.968Z,99441.78
2022-11-24T02:14:37.858Z,99429.03
2022-11-24T02:17:05.912Z,99439.34
2022-11-24T02:19:48.947Z,99451.09
2022-11-24T02:22:33.868Z,99449.47
2022-11-24T02:25:11.932Z,99456.44
2022-11-24T02:27:48.121Z,99457.31
2022-11-24T02:30:19.070Z,99454.78
2022-11-24T02:32:47.067Z,99459.97
2022-11-24T02:35:15.727Z,99458.28
2022-11-24T02:37:43.638Z,99454.81
2022-11-24T02:40:15.648Z,99459.84
2022-11-24T02:42:47.093Z,99461.59
2022-11-24T02:45:16.857Z,99461.72
2022-11-24T02:47:45.957Z,99463.44
2022-11-24T02:50:13.932Z,99466.97
2022-11-24T02:52:42.043Z,99473.03
2022-11-24T02:55:10.305Z,99467.94
2022-11-24T02:57:38.310Z,99475.72
2022-11-24T03:00:09.956Z,99474.00
2022-11-24T03:02:37.953Z,99482.72
2022-11-24T03:05:07.015Z,99475.16
2022-11-24T03:07:35.036Z,99477.03
2022-11-24T03:10:04.162Z,99481.56
2022-11-24T03:12:32.119Z,99481.63
2022-11-24T03:15:00.164Z,99490.41
2022-11-24T03:17:29.720Z,99485.28
2022-11-24T03:20:01.508Z,99485.34
2022-11-24T03:22:32.604Z,99484.47
2022-11-24T03:25:01.006Z,99487.78
2022-11-24T03:27:30.682Z,99485.97
2022-11-24T03:29:58.940Z,99490.13
2022-11-24T03:32:26.958Z,99491.75
2022-11-24T03:34:56.225Z,99496.00
2022-11-24T03:37:24.152Z,99505.38
2022-11-24T03:39:52.093Z,99508.84
2022-11-24T03:42:20.095Z,99510.59
2022-11-24T03:44:48.053Z,99510.41
2022-11-24T03:47:15.999Z,99518.91
2022-11-24T03:49:43.908Z,99517.38
2022-11-24T03:52:13.249Z,99512.22
2022-11-24T03:54:42.322Z,99516.63
2022-11-24T03:57:10.312Z,99515.84
2022-11-24T03:59:39.190Z,99512.56
2022-11-24T04:02:07.755Z,99512.38
2022-11-24T04:04:36.187Z,99522.66
2022-11-24T04:07:04.369Z,99521.84
2022-11-24T04:09:36.039Z,99523.56
2022-11-24T04:12:22.650Z,99522.56
2022-11-24T04:14:50.435Z,99520.88
2022-11-24T04:17:18.177Z,99521.72
2022-11-24T04:19:45.978Z,99532.06
2022-11-24T04:22:15.023Z,99534.53
2022-11-24T04:24:44.337Z,99538.78
2022-11-24T04:27:12.143Z,99546.63
2022-11-24T04:29:40.102Z,99542.41
2022-11-24T04:32:08.827Z,99543.31
2022-11-24T04:34:37.179Z,99539.75
2022-11-24T04:37:05.443Z,99539.75
2022-11-24T04:39:33.840Z,99544.06
2022-11-24T04:42:03.125Z,99552.47
2022-11-24T04:44:31.002Z,99555.13
2022-11-24T04:46:59.212Z,99561.94
2022-11-24T04:49:27.279Z,99567.97
2022-11-24T04:51:55.072Z,99573.09
2022-11-24T04:54:23.081Z,99573.13
2022-11-24T04:56:52.199Z,99568.03
2022-11-24T04:59:21.421Z,99569.78
2022-11-24T05:01:49.482Z,99571.50
2022-11-24T05:04:18.796Z,99575.00
2022-11-24T05:06:47.181Z,99580.31
2022-11-24T05:09:17.433Z,99575.97
2022-11-24T05:11:45.671Z,99578.63
2022-11-24T05:14:13.549Z,99585.63
2022-11-24T05:16:42.821Z,99588.22
2022-11-24T05:19:10.834Z,99587.31
2022-11-24T05:21:39.004Z,99603.72
2022-11-24T05:24:07.646Z,99602.00
2022-11-24T05:26:35.698Z,99602.84
2022-11-24T05:29:04.012Z,99607.38
2022-11-24T05:31:31.830Z,99609.03
2022-11-24T05:34:00.987Z,99612.44
2022-11-24T05:37:01.419Z,99607.25
2022-11-24T05:39:29.987Z,99618.66
2022-11-24T05:41:59.028Z,99616.22
2022-11-24T05:44:26.954Z,99618.09
2022-11-24T05:46:54.812Z,99623.47
2022-11-24T05:49:23.963Z,99625.34
2022-11-24T05:51:51.772Z,99625.38
2022-11-24T05:54:19.599Z,99625.66
2022-11-24T05:56:47.398Z,99626.50
2022-11-24T05:59:15.259Z,99625.69
2022-11-24T06:01:43.218Z,99636.00
2022-11-24T06:04:11.085Z,99637.84
2022-11-24T06:06:40.303Z,99632.72
2022-11-24T06:09:08.680Z,99636.19
2022-11-24T06:11:36.554Z,99648.19
2022-11-24T06:14:08.312Z,99644.84
2022-11-24T06:16:39.033Z,99656.22
2022-11-24T06:19:06.896Z,99653.59
2022-11-24T06:21:34.635Z,99653.66
2022-11-24T06:24:04.649Z,99661.47
2022-11-24T06:26:32.753Z,99667.47
2022-11-24T06:29:01.308Z,99667.56
2022-11-24T06:31:29.371Z,99672.88
2022-11-24T06:33:57.388Z,99676.38
2022-11-24T06:36:25.630Z,99671.19
2022-11-24T06:38:53.637Z,99678.91
2022-11-24T06:41:22.823Z,99676.41
2022-11-24T06:43:50.743Z,99678.00
2022-11-24T06:46:18.773Z,99682.31
2022-11-24T06:48:47.106Z,99688.38
2022-11-24T06:51:15.016Z,99691.91
2022-11-24T06:53:43.196Z,99690.28
2022-11-24T06:56:16.527Z,99691.22
2022-11-24T06:58:48.694Z,99693.94
2022-11-24T07:01:18.059Z,99699.03
2022-11-24T07:03:48.048Z,99696.53
2022-11-24T07:06:16.484Z,99701.59
2022-11-24T07:08:44.690Z,99707.75
2022-11-24T07:11:15.678Z,99711.88
2022-11-24T07:13:47.265Z,99719.66
2022-11-24T07:16:17.822Z,99731.78
2022-11-24T07:18:47.427Z,99734.09
2022-11-24T07:21:16.383Z,99742.00
2022-11-24T07:23:44.367Z,99741.00
2022-11-24T07:26:12.285Z,99752.09
2022-11-24T07:28:40.347Z,99753.88
2022-11-24T07:31:12.524Z,99760.78
2022-11-24T07:33:41.071Z,99758.19
2022-11-24T07:36:09.943Z,99758.13
2022-11-24T07:38:37.692Z,99764.47
2022-11-24T07:41:07.867Z,99760.16
2022-11-24T07:43:38.431Z,99768.75
2022-11-24T07:46:12.148Z,99771.44
2022-11-24T07:48:40.497Z,99772.03
2022-11-24T07:51:09.746Z,99775.09
2022-11-24T07:53:38.396Z,99776.19
2022-11-24T07:56:07.745Z,99767.75
2022-11-24T07:58:37.546Z,99779.75
2022-11-24T08:01:16.718Z,99781.31
2022-11-24T08:03:46.135Z,99798.34
2022-11-24T08:06:28.550Z,99812.41
2022-11-24T08:08:57.341Z,99813.44
2022-11-24T08:11:26.152Z,99815.56
2022-11-24T08:13:54.132Z,99820.72
2022-11-24T08:16:23.649Z,99819.16
2022-11-24T08:18:55.847Z,99815.09
2022-11-24T08:21:24.586Z,99813.59
2022-11-24T08:23:55.626Z,99812.94
2022-11-24T08:26:25.425Z,99827.31
2022-11-24T08:28:56.432Z,99831.38
2022-11-24T08:31:33.358Z,99834.41
2022-11-24T08:34:04.165Z,99842.31
2022-11-24T08:36:33.219Z,99843.97
2022-11-24T08:39:02.040Z,99839.56
2022-11-24T08:41:31.290Z,99844.13
2022-11-24T08:43:59.297Z,99849.50
2022-11-24T08:46:28.661Z,99861.63
2022-11-24T08:48:56.658Z,99859.09
2022-11-24T08:51:28.253Z,99864.31
2022-11-24T08:54:00.334Z,99864.00
2022-11-24T08:56:30.796Z,99866.41
2022-11-24T08:59:00.184Z,99872.75
2022-11-24T09:01:29.891Z,99874.66
2022-11-24T09:03:58.559Z,99878.31
2022-11-24T09:06:30.730Z,99881.66
2022-11-24T09:09:00.032Z,99884.34
2022-11-24T09:11:29.254Z,99888.72
2022-11-24T09:13:57.918Z,99890.44
2022-11-24T09:16:30.422Z,99890.19
2022-11-24T09:19:01.703Z,99905.13
2022-11-24T09:21:31.537Z,99912.78
2022-11-24T09:23:59.706Z,99920.34
2022-11-24T09:26:31.569Z,99918.56
2022-11-24T09:29:02.337Z,99920.34
2022-11-24T09:31:34.640Z,99919.66
2022-11-24T09:34:04.074Z,99922.53
2022-11-24T09:36:32.142Z,99925.88
2022-11-24T09:39:00.223Z,99933.88
2022-11-24T09:41:43.671Z,99933.03
2022-11-24T09:44:46.132Z,99934.63
2022-11-24T09:47:37.618Z,99950.22
2022-11-24T09:50:13.992Z,99946.63
2022-11-24T09:52:52.923Z,99957.78
2022-11-24T09:55:34.847Z,99946.88
2022-11-24T09:58:16.133Z,99951.03
2022-11-24T10:00:51.884Z,99951.31
2022-11-24T10:03:30.471Z,99957.28
2022-11-24T10:06:05.285Z,99960.47
2022-11-24T10:09:07.523Z,99967.81
2022-11-24T10:11:47.933Z,99964.75
2022-11-24T10:14:58.997Z,99960.34
2022-11-24T10:17:48.191Z,99964.22
2022-11-24T10:20:35.002Z,99964.44
2022-11-24T10:23:26.135Z,99963.44
2022-11-24T10:25:58.739Z,99965.31
2022-11-24T10:28:37.844Z,99975.78
2022-11-24T10:31:24.354Z,99973.22
2022-11-24T10:33:52.417Z,99985.19
2022-11-24T10:36:36.422Z,99976.34
2022-11-24T10:39:17.495Z,99991.13
2022-11-24T10:41:58.089Z,99993.91
2022-11-24T10:44:25.929Z,99997.53
2022-11-24T10:46:53.924Z,99993.38
2022-11-24T10:49:29.978Z,99992.44
2022-11-24T10:52:07.984Z,99996.78
2022-11-24T10:54:36.125Z,100000.97
2022-11-24T10:57:04.537Z,100001.88
2022-11-24T10:59:38.324Z,100016.47
2022-11-24T11:02:36.984Z,100023.28
2022-11-24T11:05:42.077Z,100015.41
2022-11-24T11:08:22.054Z,100014.75
2022-11-24T11:11:04.162Z,100023.19
2022-11-24T11:13:34.523Z,100020.78
2022-11-24T11:16:33.402Z,100021.38
2022-11-24T11:19:15.718Z,100025.50
2022-11-24T11:22:02.425Z,100035.72
2022-11-24T11:24:32.880Z,100035.00
2022-11-24T11:27:03.565Z,100040.31
2022-11-24T11:35:13.641Z,100040.50
2022-11-24T11:37:43.393Z,100043.34
2022-11-24T11:40:17.926Z,100044.44
2022-11-24T11:43:05.986Z,100041.38
2022-11-24T11:45:44.014Z,100044.91
2022-11-24T11:48:35.049Z,100046.03
2022-11-24T11:51:36.264Z,100046.72
2022-11-24T11:54:17.886Z,100040.16
2022-11-24T11:56:54.981Z,100046.09
2022-11-24T11:59:53.472Z,100047.25
2022-11-24T12:03:16.771Z,100049.16
2022-11-24T12:05:55.676Z,100059.06
2022-11-24T12:09:11.774Z,100062.41
2022-11-24T12:11:43.204Z,100061.66
2022-11-24T12:14:30.814Z,100075.81
2022-11-24T12:17:09.067Z,100074.31
2022-11-24T12:20:07.049Z,100068.97
2022-11-24T12:22:50.897Z,100067.66
2022-11-24T12:25:28.672Z,100071.19
2022-11-24T12:28:18.007Z,100080.03
2022-11-24T12:31:04.604Z,100069.88
2022-11-24T12:34:07.851Z,100064.88
2022-11-24T12:37:07.660Z,100061.56
2022-11-24T12:40:18.376Z,100058.19
2022-11-24T12:42:59.780Z,100058.25
2022-11-24T12:45:38.898Z,100065.97
2022-11-24T12:48:36.856Z,100073.03
2022-11-24T12:51:17.110Z,100070.31
2022-11-24T12:53:48.025Z,100063.66
2022-11-24T12:56:25.897Z,100062.03
2022-11-24T12:59:10.008Z,100062.25
2022-11-24T13:01:47.948Z,100061.63
2022-11-24T13:04:36.609Z,100063.16
2022-11-24T13:07:14.509Z,100056.28
2022-11-24T13:13:27.855Z,100067.69
2022-11-24T13:19:15.063Z,100069.28
2022-11-24T13:21:59.593Z,100067.22
2022-11-24T13:24:30.817Z,100070.63
2022-11-24T13:27:44.032Z,100074.13
2022-11-24T13:30:54.476Z,100075.69
2022-11-24T13:33:34.010Z,100073.13
2022-11-24T13:36:34.069Z,100066.03
2022-11-24T13:39:18.211Z,100064.88
2022-11-24T13:42:07.232Z,100068.41
2022-11-24T13:44:53.498Z,100069.38
2022-11-24T13:47:43.081Z,100076.50
2022-11-24T13:50:24.173Z,100084.22
2022-11-24T13:53:06.430Z,100084.31
2022-11-24T13:55:40.359Z,100091.97
2022-11-24T13:58:32.072Z,100090.06
2022-11-24T14:01:16.274Z,100092.63
2022-11-24T14:04:28.613Z,100093.22
2022-11-24T14:06:56.708Z,100099.41
2022-11-24T14:09:32.185Z,100095.03
2022-11-24T14:12:15.058Z,100097.53
2022-11-24T14:14:45.820Z,100094.97
2022-11-24T14:17:21.094Z,100103.78
2022-11-24T14:19:51.834Z,100103.56
2022-11-24T14:22:22.878Z,100106.09
2022-11-24T14:24:57.136Z,100104.22
2022-11-24T14:27:36.966Z,100106.00
2022-11-24T14:30:19.975Z,100099.97
2022-11-24T14:32:58.725Z,100104.13
2022-11-24T14:35:29.604Z,100105.81
2022-11-24T14:37:58.483Z,100113.56
2022-11-24T14:40:41.685Z,100109.16
2022-11-24T14:43:26.021Z,100113.41
2022-11-24T14:45:58.076Z,100119.34
2022-11-24T14:48:30.469Z,100116.63
2022-11-24T14:51:12.837Z,100120.81
2022-11-24T14:53:44.926Z,100119.81
2022-11-24T14:56:25.164Z,100119.69
2022-11-24T14:58:56.283Z,100128.22
2022-11-24T15:01:32.922Z,100127.06
2022-11-24T15:07:19.480Z,100133.44
2022-11-24T15:09:54.582Z,100136.88
2022-11-24T15:12:30.454Z,100143.63
2022-11-24T15:15:03.683Z,100155.34
2022-11-24T15:17:32.025Z,100156.88
2022-11-24T15:20:10.736Z,100155.16
2022-11-24T15:22:42.261Z,100155.72
2022-11-24T15:25:35.407Z,100159.78
2022-11-24T15:28:03.914Z,100159.66
2022-11-24T15:30:35.799Z,100154.41
2022-11-24T15:33:13.424Z,100159.41
2022-11-24T15:35:41.720Z,100157.41
2022-11-24T15:38:10.047Z,100152.06
2022-11-24T15:40:43.578Z,100148.59
2022-11-24T15:43:27.721Z,100152.50
2022-11-24T15:45:58.438Z,100158.44
2022-11-24T15:48:26.755Z,100155.72
2022-11-24T15:50:56.962Z,100154.72
2022-11-24T15:53:30.507Z,100156.16
2022-11-24T15:56:00.340Z,100158.47
2022-11-24T15:58:28.235Z,100168.38
2022-11-24T16:00:57.489Z,100158.75
2022-11-24T16:06:24.087Z,100173.94
2022-11-24T16:08:52.680Z,100178.16
2022-11-24T16:11:21.387Z,100187.50
2022-11-24T16:13:52.788Z,100180.50
2022-11-24T16:16:25.169Z,100194.03
2022-11-24T16:18:54.460Z,100202.28
2022-11-24T16:21:23.193Z,100195.13
2022-11-24T16:23:52.405Z,100201.94
2022-11-24T16:26:21.516Z,100204.44
2022-11-24T16:28:49.335Z,100201.75
2022-11-24T16:31:18.438Z,100207.69
2022-11-24T16:33:47.747Z,100215.19
2022-11-24T16:36:15.923Z,100212.47
2022-11-24T16:38:44.207Z,100213.47
2022-11-24T16:41:12.411Z,100202.13
2022-11-24T16:43:40.373Z,100199.53
2022-11-24T16:46:21.149Z,100203.00
2022-11-24T16:48:53.005Z,100198.50
2022-11-24T16:51:23.240Z,100201.78
2022-11-24T16:53:58.627Z,100207.66
2022-11-24T16:56:28.840Z,100203.34
2022-11-24T16:58:56.926Z,100206.88
2022-11-24T17:01:26.037Z,100200.81
2022-11-24T17:03:55.704Z,100207.53
2022-11-24T17:06:23.575Z,100209.88
2022-11-24T17:08:51.444Z,100209.09
2022-11-24T17:11:22.741Z,100210.81
2022-11-24T17:13:50.723Z,100206.09
2022-11-24T17:16:21.198Z,100206.25
2022-11-24T17:18:50.070Z,100203.59
2022-11-24T17:21:21.936Z,100200.13
2022-11-24T17:23:55.222Z,100213.91
2022-11-24T17:26:24.959Z,100208.44
2022-11-24T17:28:55.913Z,100209.88
2022-11-24T17:31:27.217Z,100205.41
2022-11-24T17:33:57.284Z,100210.63
2022-11-24T17:36:27.762Z,100208.91
2022-11-24T17:38:55.659Z,100203.97
2022-11-24T17:41:23.606Z,100211.00
2022-11-24T17:43:53.176Z,100205.16
2022-11-24T17:46:21.402Z,100208.66
2022-11-24T17:48:49.762Z,100201.63
2022-11-24T17:51:19.832Z,100203.38
2022-11-24T17:53:52.168Z,100203.50
2022-11-24T17:56:23.514Z,100206.94
2022-11-24T17:58:54.286Z,100203.59
2022-11-24T18:01:24.304Z,100204.50
2022-11-24T18:03:53.886Z,100210.44
2022-11-24T18:06:25.541Z,100201.63
2022-11-24T18:08:57.387Z,100199.56
2022-11-24T18:11:31.521Z,100204.53
2022-11-24T18:14:03.990Z,100200.00
2022-11-24T18:16:35.009Z,100198.94
2022-11-24T18:19:09.965Z,100202.28
2022-11-24T18:21:40.300Z,100209.13
2022-11-24T18:24:13.267Z,100209.84
2022-11-24T18:26:42.104Z,100210.84
2022-11-24T18:29:11.453Z,100211.81
2022-11-24T18:31:39.838Z,100212.41
2022-11-24T18:34:09.474Z,100208.88
2022-11-24T18:36:37.285Z,100210.41
2022-11-24T18:39:08.160Z,100218.88
2022-11-24T18:41:39.281Z,100213.47
2022-11-24T18:44:08.599Z,100211.63
2022-11-24T18:46:37.656Z,100211.63
2022-11-24T18:49:07.198Z,100214.03
2022-11-24T18:51:39.027Z,100220.59
2022-11-24T18:54:09.290Z,100223.94
2022-11-24T18:56:41.169Z,100227.53
2022-11-24T18:59:09.200Z,100225.75
2022-11-24T19:01:37.857Z,100235.41
2022-11-24T19:04:05.986Z,100238.91
2022-11-24T19:06:36.344Z,100241.72
2022-11-24T19:09:06.922Z,100235.97
2022-11-24T19:11:39.427Z,100239.47
2022-11-24T19:14:11.923Z,100236.16
2022-11-24T19:16:40.572Z,100238.03
2022-11-24T19:19:11.482Z,100228.50
2022-11-24T19:21:41.194Z,100241.50
2022-11-24T19:24:11.087Z,100242.44
2022-11-24T19:26:40.635Z,100252.69
2022-11-24T19:29:09.370Z,100249.25
2022-11-24T19:31:39.732Z,100244.28
2022-11-24T19:34:08.096Z,100241.66
2022-11-24T19:36:36.757Z,100245.97
2022-11-24T19:39:05.262Z,100247.72
2022-11-24T19:41:34.444Z,100239.97
2022-11-24T19:44:03.983Z,100248.75
2022-11-24T19:46:33.495Z,100241.19
2022-11-24T19:49:02.567Z,100239.28
2022-11-24T19:51:32.530Z,100234.94
2022-11-24T19:54:01.275Z,100248.66
2022-11-24T19:56:31.903Z,100248.66
2022-11-24T19:58:59.949Z,100240.09
2022-11-24T20:01:31.677Z,100241.53
2022-11-24T20:04:01.580Z,100241.38
2022-11-24T20:06:32.344Z,100242.97
2022-11-24T20:09:01.695Z,100247.91
2022-11-24T20:11:30.440Z,100248.78
2022-11-24T20:13:58.954Z,100247.69
2022-11-24T20:16:31.048Z,100253.78
2022-11-24T20:19:01.629Z,100252.63
2022-11-24T20:21:32.806Z,100250.06
2022-11-24T20:24:04.446Z,100245.78
2022-11-24T20:26:36.989Z,100245.72
2022-11-24T20:29:06.780Z,100248.91
2022-11-24T20:31:40.208Z,100251.25
2022-11-24T20:34:10.015Z,100257.22
2022-11-24T20:36:43.943Z,100244.19
2022-11-24T20:39:17.293Z,100240.03
2022-11-24T20:41:45.244Z,100240.97
2022-11-24T20:44:18.169Z,100254.50
2022-11-24T20:46:50.525Z,100259.66
2022-11-24T20:49:20.481Z,100256.88
2022-11-24T20:51:48.909Z,100251.19
2022-11-24T20:54:18.481Z,100241.56
2022-11-24T20:56:47.656Z,100242.25
2022-11-24T20:59:19.428Z,100247.88
2022-11-24T21:02:05.326Z,100242.53
2022-11-24T21:04:35.141Z,100237.13
2022-11-24T21:07:03.847Z,100241.50
2022-11-24T21:09:31.603Z,100242.38
2022-11-24T21:12:00.063Z,100235.72
2022-11-24T21:14:31.219Z,100239.34
2022-11-24T21:17:04.168Z,100242.03
2022-11-24T21:19:32.046Z,100239.56
2022-11-24T21:21:59.807Z,100244.81
2022-11-24T21:24:30.869Z,100245.59
2022-11-24T21:26:58.874Z,100231.13
2022-11-24T21:29:26.928Z,100243.19
2022-11-24T21:31:54.912Z,100227.94
2022-11-24T21:34:24.148Z,100234.75
2022-11-24T21:36:52.240Z,100236.50
2022-11-24T21:39:20.371Z,100236.41
2022-11-24T21:41:48.366Z,100233.72
2022-11-24T21:44:16.324Z,100243.28
2022-11-24T21:46:49.538Z,100245.00
2022-11-24T21:49:18.946Z,100248.13
2022-11-24T21:51:55.239Z,100238.69
2022-11-24T21:54:23.647Z,100243.72
2022-11-24T21:56:53.188Z,100236.75
2022-11-24T21:59:22.269Z,100237.59
2022-11-24T22:01:50.252Z,100232.56
2022-11-24T22:04:18.080Z,100226.47
2022-11-24T22:06:46.236Z,100223.66
2022-11-24T22:09:18.206Z,100227.28
2022-11-24T22:11:49.342Z,100226.72
2022-11-24T22:14:17.812Z,100234.50
2022-11-24T22:16:46.189Z,100231.06
2022-11-24T22:19:14.163Z,100224.75
2022-11-24T22:21:42.265Z,100221.88
2022-11-24T22:24:10.310Z,100231.41
2022-11-24T22:26:39.573Z,100222.81
2022-11-24T22:29:08.349Z,100228.84
2022-11-24T22:31:36.365Z,100224.03
2022-11-24T22:34:05.112Z,100220.63
2022-11-24T22:36:33.183Z,100213.63
2022-11-24T22:39:03.837Z,100219.41
2022-11-24T22:41:34.645Z,100225.53
2022-11-24T22:44:04.841Z,100208.09
2022-11-24T22:46:33.802Z,100208.00
2022-11-24T22:49:02.298Z,100211.50
2022-11-24T22:51:33.239Z,100210.97
2022-11-24T22:54:04.475Z,100211.84
2022-11-24T22:56:35.862Z,100200.66
2022-11-24T22:59:05.829Z,100208.47
2022-11-24T23:01:34.318Z,100200.75
2022-11-24T23:04:03.815Z,100203.44
2022-11-24T23:06:33.729Z,100200.16
2022-11-24T23:09:04.638Z,100211.09
2022-11-24T23:11:38.125Z,100201.94
2022-11-24T23:14:13.048Z,100201.56
2022-11-24T23:16:41.696Z,100201.56
2022-11-24T23:19:09.778Z,100192.06
2022-11-24T23:21:38.936Z,100198.19
2022-11-24T23:24:08.613Z,100198.94
2022-11-24T23:26:39.873Z,100192.31
2022-11-24T23:29:10.416Z,100188.00
2022-11-24T23:31:40.078Z,100187.94
2022-11-24T23:34:08.533Z,100187.19
2022-11-24T23:36:36.375Z,100188.84
2022-11-24T23:39:06.580Z,100190.13
2022-11-24T23:41:34.765Z,100188.34
2022-11-24T23:44:02.675Z,100182.28
2022-11-24T23:46:32.916Z,100178.53
2022-11-24T23:49:00.923Z,100177.72
2022-11-24T23:51:31.101Z,100176.19
2022-11-24T23:54:00.484Z,100172.88
2022-11-24T23:56:34.051Z,100162.03
2022-11-24T23:59:04.476Z,100165.78
